sensor_id;sensor_type;location;lat;lon;timestamp;P1;durP1;ratioP1;P2;durP2;ratioP2
71941;SDS011;59997;53.300;-6.260;2024-03-29T00:00:40;10.38;;;2.90;;
71941;SDS011;59997;53.300;-6.260;2024-03-29T00:03:05;9.80;;;3.20;;
71941;SDS011;59997;53.300;-6.260;2024-03-29T00:05:34;9.23;;;3.00;;
71941;SDS011;59997;53.300;-6.260;2024-03-29T00:08:00;9.45;;;2.90;;
71941;SDS011;59997;53.300;-6.260;2024-03-29T00:10:25;9.77;;;2.80;;
71941;SDS011;59997;53.300;-6.260;2024-03-29T00:12:51;9.27;;;3.20;;
71941;SDS011;59997;53.300;-6.260;2024-03-29T00:15:16;12.23;;;3.83;;
71941;SDS011;59997;53.300;-6.260;2024-03-29T00:17:42;10.63;;;3.40;;
71941;SDS011;59997;53.300;-6.260;2024-03-29T00:20:07;11.10;;;3.83;;
71941;SDS011;59997;53.300;-6.260;2024-03-29T00:22:34;13.13;;;4.53;;
71941;SDS011;59997;53.300;-6.260;2024-03-29T00:25:00;12.07;;;4.00;;
71941;SDS011;59997;53.300;-6.260;2024-03-29T00:27:25;14.30;;;3.70;;
71941;SDS011;59997;53.300;-6.260;2024-03-29T00:29:53;10.18;;;3.55;;
71941;SDS011;59997;53.300;-6.260;2024-03-29T00:32:19;11.18;;;3.78;;
71941;SDS011;59997;53.300;-6.260;2024-03-29T00:34:45;12.75;;;4.13;;
71941;SDS011;59997;53.300;-6.260;2024-03-29T00:37:11;15.53;;;4.30;;
71941;SDS011;59997;53.300;-6.260;2024-03-29T00:39:36;9.98;;;3.15;;
71941;SDS011;59997;53.300;-6.260;2024-03-29T00:42:02;7.00;;;1.93;;
71941;SDS011;59997;53.300;-6.260;2024-03-29T00:44:29;8.25;;;1.27;;
71941;SDS011;59997;53.300;-6.260;2024-03-29T00:46:55;8.57;;;1.50;;
71941;SDS011;59997;53.300;-6.260;2024-03-29T00:49:20;8.83;;;1.30;;
71941;SDS011;59997;53.300;-6.260;2024-03-29T00:51:45;7.80;;;1.00;;
71941;SDS011;59997;53.300;-6.260;2024-03-29T00:54:11;7.13;;;0.90;;
71941;SDS011;59997;53.300;-6.260;2024-03-29T00:56:36;8.33;;;1.30;;
71941;SDS011;59997;53.300;-6.260;2024-03-29T00:59:02;5.40;;;1.13;;
71941;SDS011;59997;53.300;-6.260;2024-03-29T01:01:27;5.60;;;0.97;;
71941;SDS011;59997;53.300;-6.260;2024-03-29T01:03:52;6.03;;;1.07;;
71941;SDS011;59997;53.300;-6.260;2024-03-29T01:06:18;8.80;;;1.15;;
71941;SDS011;59997;53.300;-6.260;2024-03-29T01:08:44;8.10;;;1.00;;
71941;SDS011;59997;53.300;-6.260;2024-03-29T01:11:10;11.68;;;1.50;;
71941;SDS011;59997;53.300;-6.260;2024-03-29T01:13:35;7.27;;;1.13;;
71941;SDS011;59997;53.300;-6.260;2024-03-29T01:16:01;9.93;;;1.10;;
71941;SDS011;59997;53.300;-6.260;2024-03-29T01:18:27;11.60;;;1.25;;
71941;SDS011;59997;53.300;-6.260;2024-03-29T01:20:52;6.80;;;1.10;;
71941;SDS011;59997;53.300;-6.260;2024-03-29T01:23:17;7.03;;;1.23;;
71941;SDS011;59997;53.300;-6.260;2024-03-29T01:25:43;11.30;;;1.20;;
71941;SDS011;59997;53.300;-6.260;2024-03-29T01:28:08;6.82;;;0.95;;
71941;SDS011;59997;53.300;-6.260;2024-03-29T01:30:34;6.53;;;0.83;;
71941;SDS011;59997;53.300;-6.260;2024-03-29T01:32:59;5.03;;;0.80;;
71941;SDS011;59997;53.300;-6.260;2024-03-29T01:35:25;5.00;;;0.83;;
71941;SDS011;59997;53.300;-6.260;2024-03-29T01:37:50;6.68;;;1.10;;
71941;SDS011;59997;53.300;-6.260;2024-03-29T01:40:16;8.07;;;0.80;;
71941;SDS011;59997;53.300;-6.260;2024-03-29T01:42:41;5.90;;;0.97;;
71941;SDS011;59997;53.300;-6.260;2024-03-29T01:45:07;9.57;;;1.10;;
71941;SDS011;59997;53.300;-6.260;2024-03-29T01:47:33;8.52;;;1.40;;
71941;SDS011;59997;53.300;-6.260;2024-03-29T01:49:59;7.88;;;1.08;;
71941;SDS011;59997;53.300;-6.260;2024-03-29T01:52:24;9.10;;;1.03;;
71941;SDS011;59997;53.300;-6.260;2024-03-29T01:54:50;7.20;;;1.00;;
71941;SDS011;59997;53.300;-6.260;2024-03-29T01:57:16;14.23;;;2.10;;
71941;SDS011;59997;53.300;-6.260;2024-03-29T01:59:42;11.73;;;1.05;;
71941;SDS011;59997;53.300;-6.260;2024-03-29T02:02:10;10.20;;;0.80;;
71941;SDS011;59997;53.300;-6.260;2024-03-29T02:04:36;7.80;;;0.87;;
71941;SDS011;59997;53.300;-6.260;2024-03-29T02:07:02;7.47;;;0.82;;
71941;SDS011;59997;53.300;-6.260;2024-03-29T02:09:28;7.53;;;1.00;;
71941;SDS011;59997;53.300;-6.260;2024-03-29T02:11:54;10.27;;;0.85;;
71941;SDS011;59997;53.300;-6.260;2024-03-29T02:14:20;7.97;;;0.82;;
71941;SDS011;59997;53.300;-6.260;2024-03-29T02:16:45;9.90;;;0.90;;
71941;SDS011;59997;53.300;-6.260;2024-03-29T02:19:11;7.60;;;0.80;;
71941;SDS011;59997;53.300;-6.260;2024-03-29T02:21:37;7.88;;;0.75;;
71941;SDS011;59997;53.300;-6.260;2024-03-29T02:24:07;11.60;;;1.30;;
71941;SDS011;59997;53.300;-6.260;2024-03-29T02:26:33;8.05;;;0.82;;
71941;SDS011;59997;53.300;-6.260;2024-03-29T02:29:01;8.63;;;0.77;;
71941;SDS011;59997;53.300;-6.260;2024-03-29T02:31:27;11.80;;;1.10;;
71941;SDS011;59997;53.300;-6.260;2024-03-29T02:33:53;9.32;;;0.80;;
71941;SDS011;59997;53.300;-6.260;2024-03-29T02:36:19;5.07;;;0.60;;
71941;SDS011;59997;53.300;-6.260;2024-03-29T02:38:44;5.13;;;0.60;;
71941;SDS011;59997;53.300;-6.260;2024-03-29T02:41:10;5.05;;;0.75;;
71941;SDS011;59997;53.300;-6.260;2024-03-29T02:43:35;5.07;;;0.90;;
71941;SDS011;59997;53.300;-6.260;2024-03-29T02:46:01;5.07;;;0.60;;
71941;SDS011;59997;53.300;-6.260;2024-03-29T02:48:26;5.70;;;1.00;;
71941;SDS011;59997;53.300;-6.260;2024-03-29T02:50:52;4.13;;;0.65;;
71941;SDS011;59997;53.300;-6.260;2024-03-29T02:53:17;5.35;;;0.70;;
71941;SDS011;59997;53.300;-6.260;2024-03-29T02:55:42;3.77;;;0.43;;
71941;SDS011;59997;53.300;-6.260;2024-03-29T02:58:08;8.80;;;0.80;;
71941;SDS011;59997;53.300;-6.260;2024-03-29T03:00:33;5.82;;;1.08;;
71941;SDS011;59997;53.300;-6.260;2024-03-29T03:02:59;5.28;;;0.60;;
71941;SDS011;59997;53.300;-6.260;2024-03-29T03:05:24;8.23;;;0.90;;
71941;SDS011;59997;53.300;-6.260;2024-03-29T03:07:50;6.33;;;0.50;;
71941;SDS011;59997;53.300;-6.260;2024-03-29T03:10:34;10.75;;;1.13;;
71941;SDS011;59997;53.300;-6.260;2024-03-29T03:13:18;6.40;;;0.73;;
71941;SDS011;59997;53.300;-6.260;2024-03-29T03:15:43;6.53;;;0.77;;
71941;SDS011;59997;53.300;-6.260;2024-03-29T03:18:09;8.82;;;0.90;;
71941;SDS011;59997;53.300;-6.260;2024-03-29T03:20:34;7.50;;;1.00;;
71941;SDS011;59997;53.300;-6.260;2024-03-29T03:23:00;7.57;;;0.93;;
71941;SDS011;59997;53.300;-6.260;2024-03-29T03:25:26;8.73;;;1.30;;
71941;SDS011;59997;53.300;-6.260;2024-03-29T03:27:52;11.48;;;1.20;;
71941;SDS011;59997;53.300;-6.260;2024-03-29T03:30:18;10.63;;;1.08;;
71941;SDS011;59997;53.300;-6.260;2024-03-29T03:32:44;7.00;;;0.87;;
71941;SDS011;59997;53.300;-6.260;2024-03-29T03:35:09;13.70;;;1.08;;
71941;SDS011;59997;53.300;-6.260;2024-03-29T03:37:35;9.00;;;0.80;;
71941;SDS011;59997;53.300;-6.260;2024-03-29T03:40:00;7.43;;;0.70;;
71941;SDS011;59997;53.300;-6.260;2024-03-29T03:42:26;9.35;;;1.20;;
71941;SDS011;59997;53.300;-6.260;2024-03-29T03:44:51;7.57;;;0.87;;
71941;SDS011;59997;53.300;-6.260;2024-03-29T03:47:17;8.23;;;0.80;;
71941;SDS011;59997;53.300;-6.260;2024-03-29T03:49:42;12.63;;;1.33;;
71941;SDS011;59997;53.300;-6.260;2024-03-29T03:52:09;9.98;;;0.95;;
71941;SDS011;59997;53.300;-6.260;2024-03-29T03:54:34;8.50;;;0.67;;
71941;SDS011;59997;53.300;-6.260;2024-03-29T03:57:00;7.13;;;0.60;;
71941;SDS011;59997;53.300;-6.260;2024-03-29T03:59:25;11.53;;;0.80;;
71941;SDS011;59997;53.300;-6.260;2024-03-29T04:01:51;7.57;;;1.00;;
71941;SDS011;59997;53.300;-6.260;2024-03-29T04:04:17;8.07;;;0.90;;
71941;SDS011;59997;53.300;-6.260;2024-03-29T04:06:43;8.05;;;0.73;;
71941;SDS011;59997;53.300;-6.260;2024-03-29T04:09:09;5.93;;;0.57;;
71941;SDS011;59997;53.300;-6.260;2024-03-29T04:11:35;12.60;;;1.80;;
71941;SDS011;59997;53.300;-6.260;2024-03-29T04:14:00;9.33;;;0.90;;
71941;SDS011;59997;53.300;-6.260;2024-03-29T04:16:26;11.00;;;1.17;;
71941;SDS011;59997;53.300;-6.260;2024-03-29T04:18:51;6.88;;;1.70;;
71941;SDS011;59997;53.300;-6.260;2024-03-29T04:21:17;6.13;;;0.60;;
71941;SDS011;59997;53.300;-6.260;2024-03-29T04:23:42;8.93;;;0.80;;
71941;SDS011;59997;53.300;-6.260;2024-03-29T04:26:08;5.87;;;0.50;;
71941;SDS011;59997;53.300;-6.260;2024-03-29T04:28:33;5.72;;;0.70;;
71941;SDS011;59997;53.300;-6.260;2024-03-29T04:30:59;13.17;;;1.13;;
71941;SDS011;59997;53.300;-6.260;2024-03-29T04:33:26;4.90;;;0.60;;
71941;SDS011;59997;53.300;-6.260;2024-03-29T04:35:53;8.07;;;1.00;;
71941;SDS011;59997;53.300;-6.260;2024-03-29T04:38:21;8.43;;;0.88;;
71941;SDS011;59997;53.300;-6.260;2024-03-29T04:40:48;8.73;;;0.90;;
71941;SDS011;59997;53.300;-6.260;2024-03-29T04:43:14;14.05;;;1.75;;
71941;SDS011;59997;53.300;-6.260;2024-03-29T04:45:40;10.57;;;1.30;;
71941;SDS011;59997;53.300;-6.260;2024-03-29T04:48:05;7.83;;;1.10;;
71941;SDS011;59997;53.300;-6.260;2024-03-29T04:50:31;6.93;;;1.35;;
71941;SDS011;59997;53.300;-6.260;2024-03-29T04:52:56;10.37;;;1.00;;
71941;SDS011;59997;53.300;-6.260;2024-03-29T04:55:22;5.65;;;0.68;;
71941;SDS011;59997;53.300;-6.260;2024-03-29T04:57:47;8.97;;;0.70;;
71941;SDS011;59997;53.300;-6.260;2024-03-29T05:00:13;9.67;;;1.23;;
71941;SDS011;59997;53.300;-6.260;2024-03-29T05:02:38;5.80;;;0.60;;
71941;SDS011;59997;53.300;-6.260;2024-03-29T05:05:04;4.60;;;0.60;;
71941;SDS011;59997;53.300;-6.260;2024-03-29T05:07:30;6.00;;;0.60;;
71941;SDS011;59997;53.300;-6.260;2024-03-29T05:09:55;4.38;;;0.40;;
71941;SDS011;59997;53.300;-6.260;2024-03-29T05:12:21;6.17;;;0.47;;
71941;SDS011;59997;53.300;-6.260;2024-03-29T05:14:46;3.17;;;0.30;;
71941;SDS011;59997;53.300;-6.260;2024-03-29T05:17:14;4.60;;;0.40;;
71941;SDS011;59997;53.300;-6.260;2024-03-29T05:19:40;5.32;;;0.45;;
71941;SDS011;59997;53.300;-6.260;2024-03-29T05:22:05;6.63;;;0.80;;
71941;SDS011;59997;53.300;-6.260;2024-03-29T05:24:31;3.53;;;0.53;;
71941;SDS011;59997;53.300;-6.260;2024-03-29T05:26:56;2.50;;;0.40;;
71941;SDS011;59997;53.300;-6.260;2024-03-29T05:29:22;3.50;;;0.40;;
71941;SDS011;59997;53.300;-6.260;2024-03-29T05:31:48;3.53;;;0.40;;
71941;SDS011;59997;53.300;-6.260;2024-03-29T05:34:14;3.30;;;0.40;;
71941;SDS011;59997;53.300;-6.260;2024-03-29T05:36:39;4.13;;;0.30;;
71941;SDS011;59997;53.300;-6.260;2024-03-29T05:39:05;4.53;;;0.30;;
71941;SDS011;59997;53.300;-6.260;2024-03-29T05:41:31;3.73;;;0.30;;
71941;SDS011;59997;53.300;-6.260;2024-03-29T05:43:57;2.97;;;0.30;;
71941;SDS011;59997;53.300;-6.260;2024-03-29T05:46:23;6.35;;;0.30;;
71941;SDS011;59997;53.300;-6.260;2024-03-29T05:48:49;3.43;;;0.40;;
71941;SDS011;59997;53.300;-6.260;2024-03-29T05:51:14;2.10;;;0.20;;
71941;SDS011;59997;53.300;-6.260;2024-03-29T05:53:40;3.83;;;0.70;;
71941;SDS011;59997;53.300;-6.260;2024-03-29T05:56:06;3.80;;;0.35;;
71941;SDS011;59997;53.300;-6.260;2024-03-29T05:58:33;2.58;;;0.38;;
71941;SDS011;59997;53.300;-6.260;2024-03-29T06:00:59;2.97;;;0.35;;
71941;SDS011;59997;53.300;-6.260;2024-03-29T06:03:24;4.10;;;0.47;;
71941;SDS011;59997;53.300;-6.260;2024-03-29T06:05:50;2.23;;;0.30;;
71941;SDS011;59997;53.300;-6.260;2024-03-29T06:08:15;3.57;;;0.43;;
71941;SDS011;59997;53.300;-6.260;2024-03-29T06:10:41;2.80;;;0.30;;
71941;SDS011;59997;53.300;-6.260;2024-03-29T06:13:06;5.13;;;0.40;;
71941;SDS011;59997;53.300;-6.260;2024-03-29T06:15:33;3.13;;;0.40;;
71941;SDS011;59997;53.300;-6.260;2024-03-29T06:18:18;4.82;;;0.40;;
71941;SDS011;59997;53.300;-6.260;2024-03-29T06:20:44;4.13;;;0.40;;
71941;SDS011;59997;53.300;-6.260;2024-03-29T06:23:10;6.33;;;0.47;;
71941;SDS011;59997;53.300;-6.260;2024-03-29T06:25:35;5.88;;;0.55;;
71941;SDS011;59997;53.300;-6.260;2024-03-29T06:28:01;4.10;;;0.40;;
71941;SDS011;59997;53.300;-6.260;2024-03-29T06:30:26;7.57;;;0.70;;
71941;SDS011;59997;53.300;-6.260;2024-03-29T06:32:52;4.40;;;0.38;;
71941;SDS011;59997;53.300;-6.260;2024-03-29T06:35:17;3.67;;;0.33;;
71941;SDS011;59997;53.300;-6.260;2024-03-29T06:37:45;6.68;;;0.47;;
71941;SDS011;59997;53.300;-6.260;2024-03-29T06:40:11;7.53;;;0.50;;
71941;SDS011;59997;53.300;-6.260;2024-03-29T06:42:36;2.80;;;0.43;;
71941;SDS011;59997;53.300;-6.260;2024-03-29T06:45:03;6.47;;;0.57;;
71941;SDS011;59997;53.300;-6.260;2024-03-29T06:47:30;7.28;;;0.40;;
71941;SDS011;59997;53.300;-6.260;2024-03-29T06:49:56;8.48;;;0.63;;
71941;SDS011;59997;53.300;-6.260;2024-03-29T06:52:22;8.27;;;0.60;;
71941;SDS011;59997;53.300;-6.260;2024-03-29T06:54:47;3.90;;;0.50;;
71941;SDS011;59997;53.300;-6.260;2024-03-29T06:57:13;7.45;;;0.70;;
71941;SDS011;59997;53.300;-6.260;2024-03-29T06:59:42;4.60;;;0.50;;
71941;SDS011;59997;53.300;-6.260;2024-03-29T07:02:07;5.97;;;0.70;;
71941;SDS011;59997;53.300;-6.260;2024-03-29T07:04:35;6.32;;;0.60;;
71941;SDS011;59997;53.300;-6.260;2024-03-29T07:07:00;5.73;;;0.60;;
71941;SDS011;59997;53.300;-6.260;2024-03-29T07:09:26;4.90;;;0.40;;
71941;SDS011;59997;53.300;-6.260;2024-03-29T07:11:51;12.63;;;0.60;;
71941;SDS011;59997;53.300;-6.260;2024-03-29T07:14:17;7.20;;;0.50;;
71941;SDS011;59997;53.300;-6.260;2024-03-29T07:16:44;4.40;;;0.50;;
71941;SDS011;59997;53.300;-6.260;2024-03-29T07:19:10;7.55;;;0.75;;
71941;SDS011;59997;53.300;-6.260;2024-03-29T07:21:41;3.60;;;0.50;;
71941;SDS011;59997;53.300;-6.260;2024-03-29T07:24:08;5.80;;;0.38;;
71941;SDS011;59997;53.300;-6.260;2024-03-29T07:26:34;6.50;;;0.38;;
71941;SDS011;59997;53.300;-6.260;2024-03-29T07:29:00;8.63;;;0.57;;
71941;SDS011;59997;53.300;-6.260;2024-03-29T07:31:26;4.10;;;0.52;;
71941;SDS011;59997;53.300;-6.260;2024-03-29T07:33:51;7.37;;;0.50;;
71941;SDS011;59997;53.300;-6.260;2024-03-29T07:36:16;6.38;;;0.60;;
71941;SDS011;59997;53.300;-6.260;2024-03-29T07:38:42;4.27;;;0.47;;
71941;SDS011;59997;53.300;-6.260;2024-03-29T07:41:09;7.95;;;0.82;;
71941;SDS011;59997;53.300;-6.260;2024-03-29T07:43:38;4.38;;;0.60;;
71941;SDS011;59997;53.300;-6.260;2024-03-29T07:46:05;4.35;;;0.52;;
71941;SDS011;59997;53.300;-6.260;2024-03-29T07:48:33;4.43;;;0.40;;
71941;SDS011;59997;53.300;-6.260;2024-03-29T07:50:59;5.22;;;0.57;;
71941;SDS011;59997;53.300;-6.260;2024-03-29T07:53:25;4.87;;;0.47;;
71941;SDS011;59997;53.300;-6.260;2024-03-29T07:55:50;6.72;;;0.77;;
71941;SDS011;59997;53.300;-6.260;2024-03-29T07:58:16;5.67;;;0.43;;
71941;SDS011;59997;53.300;-6.260;2024-03-29T08:00:42;11.38;;;0.93;;
71941;SDS011;59997;53.300;-6.260;2024-03-29T08:03:07;6.70;;;0.83;;
71941;SDS011;59997;53.300;-6.260;2024-03-29T08:05:33;6.35;;;1.10;;
71941;SDS011;59997;53.300;-6.260;2024-03-29T08:07:59;5.67;;;1.13;;
71941;SDS011;59997;53.300;-6.260;2024-03-29T08:10:25;7.47;;;1.23;;
71941;SDS011;59997;53.300;-6.260;2024-03-29T08:12:51;7.68;;;1.30;;
71941;SDS011;59997;53.300;-6.260;2024-03-29T08:15:16;8.03;;;1.13;;
71941;SDS011;59997;53.300;-6.260;2024-03-29T08:17:43;6.13;;;1.50;;
71941;SDS011;59997;53.300;-6.260;2024-03-29T08:20:10;6.10;;;1.10;;
71941;SDS011;59997;53.300;-6.260;2024-03-29T08:22:35;5.93;;;1.00;;
71941;SDS011;59997;53.300;-6.260;2024-03-29T08:25:01;5.90;;;1.10;;
71941;SDS011;59997;53.300;-6.260;2024-03-29T08:27:27;4.90;;;1.20;;
71941;SDS011;59997;53.300;-6.260;2024-03-29T08:29:52;5.30;;;1.07;;
71941;SDS011;59997;53.300;-6.260;2024-03-29T08:32:18;7.00;;;1.20;;
71941;SDS011;59997;53.300;-6.260;2024-03-29T08:34:44;5.30;;;1.20;;
71941;SDS011;59997;53.300;-6.260;2024-03-29T08:37:09;5.13;;;0.90;;
71941;SDS011;59997;53.300;-6.260;2024-03-29T08:39:35;4.43;;;0.57;;
71941;SDS011;59997;53.300;-6.260;2024-03-29T08:42:02;7.30;;;1.13;;
71941;SDS011;59997;53.300;-6.260;2024-03-29T08:44:30;4.53;;;0.63;;
71941;SDS011;59997;53.300;-6.260;2024-03-29T08:46:56;6.95;;;0.60;;
71941;SDS011;59997;53.300;-6.260;2024-03-29T08:49:23;5.75;;;1.00;;
71941;SDS011;59997;53.300;-6.260;2024-03-29T08:51:49;5.13;;;1.05;;
71941;SDS011;59997;53.300;-6.260;2024-03-29T08:54:15;5.80;;;0.60;;
71941;SDS011;59997;53.300;-6.260;2024-03-29T08:56:40;5.73;;;0.73;;
71941;SDS011;59997;53.300;-6.260;2024-03-29T08:59:06;5.23;;;0.90;;
71941;SDS011;59997;53.300;-6.260;2024-03-29T09:01:38;4.53;;;0.50;;
71941;SDS011;59997;53.300;-6.260;2024-03-29T09:04:07;6.45;;;0.80;;
71941;SDS011;59997;53.300;-6.260;2024-03-29T09:06:36;5.22;;;0.68;;
71941;SDS011;59997;53.300;-6.260;2024-03-29T09:09:04;6.07;;;0.75;;
71941;SDS011;59997;53.300;-6.260;2024-03-29T09:11:31;9.50;;;0.70;;
71941;SDS011;59997;53.300;-6.260;2024-03-29T09:13:56;7.57;;;0.80;;
71941;SDS011;59997;53.300;-6.260;2024-03-29T09:16:24;5.55;;;0.63;;
71941;SDS011;59997;53.300;-6.260;2024-03-29T09:18:50;4.30;;;0.60;;
71941;SDS011;59997;53.300;-6.260;2024-03-29T09:21:16;6.43;;;0.80;;
71941;SDS011;59997;53.300;-6.260;2024-03-29T09:23:41;10.32;;;1.30;;
71941;SDS011;59997;53.300;-6.260;2024-03-29T09:26:07;7.97;;;1.03;;
71941;SDS011;59997;53.300;-6.260;2024-03-29T09:28:32;5.77;;;0.90;;
71941;SDS011;59997;53.300;-6.260;2024-03-29T09:31:00;7.72;;;0.77;;
71941;SDS011;59997;53.300;-6.260;2024-03-29T09:33:26;4.00;;;0.60;;
71941;SDS011;59997;53.300;-6.260;2024-03-29T09:35:51;5.33;;;1.07;;
71941;SDS011;59997;53.300;-6.260;2024-03-29T09:38:19;7.03;;;0.88;;
71941;SDS011;59997;53.300;-6.260;2024-03-29T09:40:44;7.67;;;0.80;;
71941;SDS011;59997;53.300;-6.260;2024-03-29T09:43:10;7.25;;;0.80;;
71941;SDS011;59997;53.300;-6.260;2024-03-29T09:45:39;8.02;;;0.70;;
71941;SDS011;59997;53.300;-6.260;2024-03-29T09:48:06;5.33;;;0.83;;
71941;SDS011;59997;53.300;-6.260;2024-03-29T09:50:34;6.47;;;1.20;;
71941;SDS011;59997;53.300;-6.260;2024-03-29T09:53:01;7.25;;;0.80;;
71941;SDS011;59997;53.300;-6.260;2024-03-29T09:55:27;7.35;;;0.90;;
71941;SDS011;59997;53.300;-6.260;2024-03-29T09:57:53;5.40;;;1.20;;
71941;SDS011;59997;53.300;-6.260;2024-03-29T10:00:19;7.40;;;0.80;;
71941;SDS011;59997;53.300;-6.260;2024-03-29T10:02:45;7.78;;;1.23;;
71941;SDS011;59997;53.300;-6.260;2024-03-29T10:05:14;5.80;;;0.68;;
71941;SDS011;59997;53.300;-6.260;2024-03-29T10:07:40;7.60;;;0.70;;
71941;SDS011;59997;53.300;-6.260;2024-03-29T10:10:07;9.03;;;1.10;;
71941;SDS011;59997;53.300;-6.260;2024-03-29T10:12:33;6.38;;;1.00;;
71941;SDS011;59997;53.300;-6.260;2024-03-29T10:14:59;9.70;;;2.27;;
71941;SDS011;59997;53.300;-6.260;2024-03-29T10:17:33;7.18;;;1.50;;
71941;SDS011;59997;53.300;-6.260;2024-03-29T10:20:02;7.93;;;2.33;;
71941;SDS011;59997;53.300;-6.260;2024-03-29T10:22:28;10.23;;;1.73;;
71941;SDS011;59997;53.300;-6.260;2024-03-29T10:25:06;8.00;;;1.77;;
71941;SDS011;59997;53.300;-6.260;2024-03-29T10:27:31;9.32;;;1.80;;
71941;SDS011;59997;53.300;-6.260;2024-03-29T10:29:58;6.85;;;1.17;;
71941;SDS011;59997;53.300;-6.260;2024-03-29T10:32:24;6.97;;;1.17;;
71941;SDS011;59997;53.300;-6.260;2024-03-29T10:34:50;7.13;;;1.50;;
71941;SDS011;59997;53.300;-6.260;2024-03-29T10:37:16;7.28;;;1.70;;
71941;SDS011;59997;53.300;-6.260;2024-03-29T10:39:50;8.43;;;2.08;;
71941;SDS011;59997;53.300;-6.260;2024-03-29T10:42:15;7.27;;;1.73;;
71941;SDS011;59997;53.300;-6.260;2024-03-29T10:44:41;7.75;;;1.70;;
71941;SDS011;59997;53.300;-6.260;2024-03-29T10:47:08;9.43;;;1.92;;
71941;SDS011;59997;53.300;-6.260;2024-03-29T10:49:36;8.52;;;1.70;;
71941;SDS011;59997;53.300;-6.260;2024-03-29T10:52:06;7.50;;;1.60;;
71941;SDS011;59997;53.300;-6.260;2024-03-29T10:54:34;6.87;;;1.10;;
71941;SDS011;59997;53.300;-6.260;2024-03-29T10:57:04;7.68;;;1.50;;
71941;SDS011;59997;53.300;-6.260;2024-03-29T10:59:44;7.50;;;1.83;;
71941;SDS011;59997;53.300;-6.260;2024-03-29T11:02:13;8.30;;;1.48;;
71941;SDS011;59997;53.300;-6.260;2024-03-29T11:04:52;8.90;;;2.22;;
71941;SDS011;59997;53.300;-6.260;2024-03-29T11:07:19;10.23;;;1.70;;
71941;SDS011;59997;53.300;-6.260;2024-03-29T11:09:48;9.65;;;1.95;;
71941;SDS011;59997;53.300;-6.260;2024-03-29T11:12:17;9.82;;;1.58;;
71941;SDS011;59997;53.300;-6.260;2024-03-29T11:14:50;9.13;;;1.23;;
71941;SDS011;59997;53.300;-6.260;2024-03-29T11:17:27;7.93;;;1.38;;
71941;SDS011;59997;53.300;-6.260;2024-03-29T11:19:55;8.93;;;1.10;;
71941;SDS011;59997;53.300;-6.260;2024-03-29T11:22:22;9.07;;;1.20;;
71941;SDS011;59997;53.300;-6.260;2024-03-29T11:24:50;7.70;;;1.20;;
71941;SDS011;59997;53.300;-6.260;2024-03-29T11:27:16;7.95;;;1.13;;
71941;SDS011;59997;53.300;-6.260;2024-03-29T11:29:44;6.32;;;0.80;;
71941;SDS011;59997;53.300;-6.260;2024-03-29T11:32:11;6.23;;;0.80;;
71941;SDS011;59997;53.300;-6.260;2024-03-29T11:34:42;10.60;;;1.40;;
71941;SDS011;59997;53.300;-6.260;2024-03-29T11:37:12;9.00;;;1.10;;
71941;SDS011;59997;53.300;-6.260;2024-03-29T11:39:46;8.68;;;0.95;;
71941;SDS011;59997;53.300;-6.260;2024-03-29T11:42:12;9.93;;;0.80;;
71941;SDS011;59997;53.300;-6.260;2024-03-29T11:44:38;6.23;;;0.87;;
71941;SDS011;59997;53.300;-6.260;2024-03-29T11:47:04;6.50;;;1.02;;
71941;SDS011;59997;53.300;-6.260;2024-03-29T11:49:32;6.90;;;0.80;;
71941;SDS011;59997;53.300;-6.260;2024-03-29T11:52:04;9.50;;;1.00;;
71941;SDS011;59997;53.300;-6.260;2024-03-29T11:54:36;6.93;;;0.80;;
71941;SDS011;59997;53.300;-6.260;2024-03-29T11:57:03;6.13;;;0.80;;
71941;SDS011;59997;53.300;-6.260;2024-03-29T11:59:29;7.20;;;0.73;;
71941;SDS011;59997;53.300;-6.260;2024-03-29T12:01:54;8.45;;;1.35;;
71941;SDS011;59997;53.300;-6.260;2024-03-29T12:04:20;8.03;;;1.03;;
71941;SDS011;59997;53.300;-6.260;2024-03-29T12:06:46;6.65;;;1.13;;
71941;SDS011;59997;53.300;-6.260;2024-03-29T12:09:12;3.53;;;0.65;;
71941;SDS011;59997;53.300;-6.260;2024-03-29T12:11:38;3.60;;;0.50;;
71941;SDS011;59997;53.300;-6.260;2024-03-29T12:14:11;8.25;;;0.80;;
71941;SDS011;59997;53.300;-6.260;2024-03-29T12:16:43;6.17;;;0.60;;
71941;SDS011;59997;53.300;-6.260;2024-03-29T12:19:10;6.60;;;0.90;;
71941;SDS011;59997;53.300;-6.260;2024-03-29T12:21:46;4.70;;;0.60;;
71941;SDS011;59997;53.300;-6.260;2024-03-29T12:24:12;4.63;;;0.50;;
71941;SDS011;59997;53.300;-6.260;2024-03-29T12:26:37;6.43;;;0.65;;
71941;SDS011;59997;53.300;-6.260;2024-03-29T12:29:03;4.13;;;0.60;;
71941;SDS011;59997;53.300;-6.260;2024-03-29T12:31:28;9.37;;;0.90;;
71941;SDS011;59997;53.300;-6.260;2024-03-29T12:33:54;4.70;;;0.60;;
71941;SDS011;59997;53.300;-6.260;2024-03-29T12:36:22;6.67;;;0.50;;
71941;SDS011;59997;53.300;-6.260;2024-03-29T12:38:49;4.68;;;0.70;;
71941;SDS011;59997;53.300;-6.260;2024-03-29T12:41:17;5.13;;;0.55;;
71941;SDS011;59997;53.300;-6.260;2024-03-29T12:43:43;4.53;;;0.80;;
71941;SDS011;59997;53.300;-6.260;2024-03-29T12:46:08;4.95;;;1.00;;
71941;SDS011;59997;53.300;-6.260;2024-03-29T12:48:34;7.07;;;0.70;;
71941;SDS011;59997;53.300;-6.260;2024-03-29T12:51:00;4.95;;;0.60;;
71941;SDS011;59997;53.300;-6.260;2024-03-29T12:53:26;6.60;;;0.73;;
71941;SDS011;59997;53.300;-6.260;2024-03-29T12:55:53;4.60;;;0.65;;
71941;SDS011;59997;53.300;-6.260;2024-03-29T12:58:19;8.03;;;0.80;;
71941;SDS011;59997;53.300;-6.260;2024-03-29T13:00:47;6.35;;;1.20;;
71941;SDS011;59997;53.300;-6.260;2024-03-29T13:03:13;8.15;;;1.02;;
71941;SDS011;59997;53.300;-6.260;2024-03-29T13:05:39;10.17;;;1.07;;
71941;SDS011;59997;53.300;-6.260;2024-03-29T13:08:10;6.80;;;0.82;;
71941;SDS011;59997;53.300;-6.260;2024-03-29T13:10:37;8.32;;;1.02;;
71941;SDS011;59997;53.300;-6.260;2024-03-29T13:13:05;8.75;;;0.68;;
71941;SDS011;59997;53.300;-6.260;2024-03-29T13:15:33;5.90;;;0.87;;
71941;SDS011;59997;53.300;-6.260;2024-03-29T13:18:00;9.75;;;0.90;;
71941;SDS011;59997;53.300;-6.260;2024-03-29T13:20:26;12.32;;;1.10;;
71941;SDS011;59997;53.300;-6.260;2024-03-29T13:22:52;6.60;;;0.90;;
71941;SDS011;59997;53.300;-6.260;2024-03-29T13:25:19;7.78;;;1.02;;
71941;SDS011;59997;53.300;-6.260;2024-03-29T13:27:49;10.35;;;1.08;;
71941;SDS011;59997;53.300;-6.260;2024-03-29T13:30:20;8.50;;;1.08;;
71941;SDS011;59997;53.300;-6.260;2024-03-29T13:32:47;7.07;;;0.90;;
71941;SDS011;59997;53.300;-6.260;2024-03-29T13:35:13;9.10;;;1.13;;
71941;SDS011;59997;53.300;-6.260;2024-03-29T13:37:40;11.82;;;0.90;;
71941;SDS011;59997;53.300;-6.260;2024-03-29T13:40:08;7.10;;;0.90;;
71941;SDS011;59997;53.300;-6.260;2024-03-29T13:42:34;10.40;;;0.88;;
71941;SDS011;59997;53.300;-6.260;2024-03-29T13:45:00;7.33;;;0.77;;
71941;SDS011;59997;53.300;-6.260;2024-03-29T13:47:26;11.32;;;1.42;;
71941;SDS011;59997;53.300;-6.260;2024-03-29T13:49:52;7.70;;;0.87;;
71941;SDS011;59997;53.300;-6.260;2024-03-29T13:52:19;7.85;;;0.93;;
71941;SDS011;59997;53.300;-6.260;2024-03-29T13:54:45;7.70;;;1.50;;
71941;SDS011;59997;53.300;-6.260;2024-03-29T13:57:15;7.93;;;1.30;;
71941;SDS011;59997;53.300;-6.260;2024-03-29T13:59:43;9.23;;;1.30;;
71941;SDS011;59997;53.300;-6.260;2024-03-29T14:02:13;8.13;;;1.33;;
71941;SDS011;59997;53.300;-6.260;2024-03-29T14:04:46;7.13;;;0.90;;
71941;SDS011;59997;53.300;-6.260;2024-03-29T14:07:12;7.43;;;0.90;;
71941;SDS011;59997;53.300;-6.260;2024-03-29T14:09:41;8.68;;;1.10;;
71941;SDS011;59997;53.300;-6.260;2024-03-29T14:12:07;7.68;;;0.98;;
71941;SDS011;59997;53.300;-6.260;2024-03-29T14:14:33;6.23;;;0.90;;
71941;SDS011;59997;53.300;-6.260;2024-03-29T14:16:59;8.25;;;0.80;;
71941;SDS011;59997;53.300;-6.260;2024-03-29T14:19:35;6.15;;;1.23;;
71941;SDS011;59997;53.300;-6.260;2024-03-29T14:22:03;7.38;;;1.38;;
71941;SDS011;59997;53.300;-6.260;2024-03-29T14:24:30;6.38;;;0.90;;
71941;SDS011;59997;53.300;-6.260;2024-03-29T14:26:58;4.50;;;0.50;;
71941;SDS011;59997;53.300;-6.260;2024-03-29T14:29:23;9.15;;;0.98;;